createdAt,value
2023-02-08T00:00:38.891Z,-0.15
2023-02-08T00:01:38.434Z,-0.10
2023-02-08T00:02:39.461Z,-0.18
2023-02-08T00:03:39.438Z,-0.17
2023-02-08T00:04:38.363Z,-0.18
2023-02-08T00:05:38.386Z,-0.25
2023-02-08T00:06:38.343Z,-0.21
2023-02-08T00:07:38.355Z,-0.26
2023-02-08T00:08:38.311Z,-0.17
2023-02-08T00:09:38.305Z,-0.14
2023-02-08T00:10:38.961Z,-0.08
2023-02-08T00:11:38.308Z,-0.07
2023-02-08T00:12:45.909Z,-0.07
2023-02-08T00:13:40.388Z,-0.10
2023-02-08T00:14:38.280Z,-0.10
2023-02-08T00:15:38.272Z,-0.03
2023-02-08T00:16:38.238Z,-0.03
2023-02-08T00:17:39.235Z,-0.07
2023-02-08T00:18:39.206Z,-0.13
2023-02-08T00:19:38.186Z,-0.14
2023-02-08T00:20:38.515Z,-0.28
2023-02-08T00:21:39.168Z,-0.26
2023-02-08T00:22:38.172Z,-0.20
2023-02-08T00:23:38.145Z,-0.20
2023-02-08T00:24:38.143Z,-0.17
2023-02-08T00:25:38.165Z,-0.17
2023-02-08T00:26:38.158Z,-0.17
2023-02-08T00:27:39.137Z,-0.17
2023-02-08T00:28:39.156Z,-0.20
2023-02-08T00:29:39.090Z,-0.15
2023-02-08T00:30:38.201Z,-0.11
2023-02-08T00:31:38.233Z,-0.03
2023-02-08T00:32:38.060Z,-0.07
2023-02-08T00:33:38.052Z,-0.03
2023-02-08T00:34:39.051Z,-0.25
2023-02-08T00:35:38.058Z,-0.70
2023-02-08T00:36:38.017Z,-0.74
2023-02-08T00:37:38.017Z,-0.83
2023-02-08T00:38:37.995Z,-0.70
2023-02-08T00:39:37.990Z,-0.78
2023-02-08T00:40:38.323Z,-0.74
2023-02-08T00:41:37.988Z,-0.72
2023-02-08T00:42:37.963Z,-0.75
2023-02-08T00:43:37.956Z,-0.74
2023-02-08T00:44:37.915Z,-0.96
2023-02-08T00:45:38.907Z,-0.96
2023-02-08T00:46:37.980Z,-0.96
2023-02-08T00:47:37.946Z,-0.80
2023-02-08T00:48:37.900Z,-0.99
2023-02-08T00:49:37.864Z,-1.14
2023-02-08T00:50:39.105Z,-1.22
2023-02-08T00:51:37.839Z,-1.22
2023-02-08T00:52:37.862Z,-1.17
2023-02-08T00:53:37.834Z,-1.23
2023-02-08T00:54:37.823Z,-1.11
2023-02-08T00:55:37.834Z,-1.09
2023-02-08T00:56:37.793Z,-1.09
2023-02-08T00:57:37.799Z,-1.23
2023-02-08T00:58:37.794Z,-1.05
2023-02-08T00:59:37.762Z,-0.96
2023-02-08T01:00:38.157Z,-0.96
2023-02-08T01:01:38.803Z,-0.99
2023-02-08T01:02:37.737Z,-0.96
2023-02-08T01:03:37.750Z,-1.20
2023-02-08T01:04:37.739Z,-1.08
2023-02-08T01:05:37.697Z,-1.40
2023-02-08T01:06:37.705Z,-1.47
2023-02-08T01:07:37.698Z,-1.41
2023-02-08T01:08:37.675Z,-1.38
2023-02-08T01:09:37.687Z,-1.56
2023-02-08T01:10:38.085Z,-1.54
2023-02-08T01:11:37.641Z,-1.53
2023-02-08T01:12:37.643Z,-1.89
2023-02-08T01:13:38.612Z,-2.01
2023-02-08T01:14:38.637Z,-2.05
2023-02-08T01:15:37.624Z,-2.00
2023-02-08T01:16:37.671Z,-2.23
2023-02-08T01:17:37.576Z,-2.23
2023-02-08T01:18:37.574Z,-2.28
2023-02-08T01:19:37.563Z,-2.15
2023-02-08T01:20:37.801Z,-2.22
2023-02-08T01:21:37.536Z,-2.23
2023-02-08T01:22:37.519Z,-2.34
2023-02-08T01:23:38.524Z,-2.44
2023-02-08T01:24:38.534Z,-2.48
2023-02-08T01:25:37.519Z,-2.35
2023-02-08T01:26:37.475Z,-2.52
2023-02-08T01:27:37.473Z,-2.60
2023-02-08T01:28:37.486Z,-2.45
2023-02-08T01:29:37.454Z,-2.40
2023-02-08T01:30:37.545Z,-2.23
2023-02-08T01:31:37.485Z,-2.07
2023-02-08T01:32:37.468Z,-2.08
2023-02-08T01:33:38.402Z,-1.97
2023-02-08T01:34:37.405Z,-2.00
2023-02-08T01:35:38.417Z,-2.01
2023-02-08T01:36:37.385Z,-2.01
2023-02-08T01:37:38.462Z,-1.82
2023-02-08T01:38:37.369Z,-1.65
2023-02-08T01:39:38.349Z,-1.62
2023-02-08T01:40:37.511Z,-1.71
2023-02-08T01:41:37.327Z,-1.62
2023-02-08T01:42:37.353Z,-1.61
2023-02-08T01:43:37.342Z,-1.47
2023-02-08T01:44:37.285Z,-1.74
2023-02-08T01:45:37.352Z,-1.79
2023-02-08T01:46:38.295Z,-1.94
2023-02-08T01:47:37.256Z,-2.01
2023-02-08T01:48:37.259Z,-2.00
2023-02-08T01:49:37.248Z,-1.98
2023-02-08T01:50:37.237Z,-2.00
2023-02-08T01:51:37.236Z,-2.02
2023-02-08T01:52:37.221Z,-2.01
2023-02-08T01:53:37.203Z,-1.95
2023-02-08T01:54:37.200Z,-1.95
2023-02-08T01:55:37.162Z,-1.94
2023-02-08T01:56:37.192Z,-2.21
2023-02-08T01:57:37.146Z,-2.30
2023-02-08T01:58:37.182Z,-2.66
2023-02-08T01:59:38.143Z,-2.92
2023-02-08T02:00:37.108Z,-3.01
2023-02-08T02:01:37.111Z,-3.16
2023-02-08T02:02:37.116Z,-2.99
2023-02-08T02:03:37.089Z,-2.81
2023-02-08T02:04:38.120Z,-2.84
2023-02-08T02:05:37.076Z,-2.76
2023-02-08T02:06:37.045Z,-2.65
2023-02-08T02:07:37.074Z,-2.65
2023-02-08T02:08:37.090Z,-2.65
2023-02-08T02:09:37.039Z,-2.71
2023-02-08T02:10:36.996Z,-2.71
2023-02-08T02:11:37.990Z,-2.73
2023-02-08T02:12:37.025Z,-2.77
2023-02-08T02:13:36.975Z,-2.63
2023-02-08T02:14:36.958Z,-2.58
2023-02-08T02:15:37.957Z,-2.55
2023-02-08T02:16:37.048Z,-2.45
2023-02-08T02:17:36.932Z,-2.41
2023-02-08T02:18:36.949Z,-2.26
2023-02-08T02:19:37.907Z,-2.26
2023-02-08T02:20:38.239Z,-2.18
2023-02-08T02:21:36.882Z,-2.12
2023-02-08T02:22:37.907Z,-2.08
2023-02-08T02:23:36.895Z,-2.00
2023-02-08T02:24:36.858Z,-1.94
2023-02-08T02:25:36.912Z,-1.84
2023-02-08T02:26:37.843Z,-1.80
2023-02-08T02:27:36.837Z,-1.86
2023-02-08T02:28:36.820Z,-1.76
2023-02-08T02:29:36.841Z,-1.74
2023-02-08T02:30:36.842Z,-1.76
2023-02-08T02:31:36.943Z,-1.69
2023-02-08T02:32:36.759Z,-1.87
2023-02-08T02:33:37.779Z,-1.95
2023-02-08T02:34:36.746Z,-2.01
2023-02-08T02:35:36.753Z,-2.15
2023-02-08T02:36:36.753Z,-2.19
2023-02-08T02:37:37.735Z,-2.22
2023-02-08T02:38:36.706Z,-2.18
2023-02-08T02:39:36.756Z,-2.21
2023-02-08T02:40:36.688Z,-2.25
2023-02-08T02:41:36.681Z,-2.23
2023-02-08T02:42:37.680Z,-2.16
2023-02-08T02:43:36.708Z,-2.21
2023-02-08T02:44:37.637Z,-2.28
2023-02-08T02:45:36.646Z,-2.26
2023-02-08T02:46:36.632Z,-2.28
2023-02-08T02:47:36.623Z,-2.41
2023-02-08T02:48:37.615Z,-2.42
2023-02-08T02:49:36.614Z,-2.37
2023-02-08T02:50:36.589Z,-2.35
2023-02-08T02:51:36.559Z,-2.32
2023-02-08T02:52:36.579Z,-2.42
2023-02-08T02:53:36.537Z,-2.22
2023-02-08T02:54:36.543Z,-2.30
2023-02-08T02:55:37.561Z,-2.26
2023-02-08T02:56:36.530Z,-2.28
2023-02-08T02:57:36.528Z,-2.10
2023-02-08T02:58:36.500Z,-2.01
2023-02-08T02:59:36.473Z,-1.98
2023-02-08T03:00:37.848Z,-1.98
2023-02-08T03:01:36.458Z,-1.86
2023-02-08T03:02:36.469Z,-1.80
2023-02-08T03:03:36.446Z,-1.83
2023-02-08T03:04:36.559Z,-1.76
2023-02-08T03:05:36.441Z,-1.80
2023-02-08T03:06:37.422Z,-1.64
2023-02-08T03:07:36.444Z,-1.68
2023-02-08T03:08:37.395Z,-1.66
2023-02-08T03:09:37.393Z,-1.64
2023-02-08T03:10:37.515Z,-1.72
2023-02-08T03:11:36.380Z,-1.77
2023-02-08T03:12:36.442Z,-1.72
2023-02-08T03:13:36.329Z,-1.66
2023-02-08T03:14:36.310Z,-1.64
2023-02-08T03:15:36.350Z,-1.66
2023-02-08T03:16:36.386Z,-1.64
2023-02-08T03:17:36.341Z,-1.65
2023-02-08T03:18:36.293Z,-1.69
2023-02-08T03:19:36.437Z,-1.61
2023-02-08T03:20:36.264Z,-1.61
2023-02-08T03:21:36.305Z,-1.59
2023-02-08T03:22:37.236Z,-1.58
2023-02-08T03:23:36.257Z,-1.59
2023-02-08T03:24:37.240Z,-1.59
2023-02-08T03:25:36.217Z,-1.61
2023-02-08T03:26:37.230Z,-1.74
2023-02-08T03:27:36.206Z,-1.76
2023-02-08T03:28:36.191Z,-1.74
2023-02-08T03:29:36.152Z,-1.69
2023-02-08T03:30:36.241Z,-1.74
2023-02-08T03:31:36.212Z,-1.87
2023-02-08T03:32:36.165Z,-1.86
2023-02-08T03:33:36.151Z,-1.95
2023-02-08T03:34:36.141Z,-2.04
2023-02-08T03:35:36.171Z,-1.94
2023-02-08T03:36:37.104Z,-1.86
2023-02-08T03:37:36.106Z,-1.86
2023-02-08T03:38:36.076Z,-1.82
2023-02-08T03:39:36.056Z,-1.83
2023-02-08T03:40:36.068Z,-1.80
2023-02-08T03:41:36.059Z,-1.76
2023-02-08T03:42:36.016Z,-1.77
2023-02-08T03:43:37.025Z,-1.79
2023-02-08T03:44:36.043Z,-1.90
2023-02-08T03:45:36.012Z,-1.87
2023-02-08T03:46:35.986Z,-1.83
2023-02-08T03:47:36.002Z,-1.80
2023-02-08T03:48:35.958Z,-1.79
2023-02-08T03:49:36.970Z,-1.62
2023-02-08T03:50:35.931Z,-1.65
2023-02-08T03:51:35.980Z,-1.64
2023-02-08T03:52:35.957Z,-1.61
2023-02-08T03:53:35.940Z,-1.59
2023-02-08T03:54:35.914Z,-1.77
2023-02-08T03:55:35.890Z,-1.66
2023-02-08T03:56:35.873Z,-1.71
2023-02-08T03:57:35.871Z,-1.69
2023-02-08T03:58:36.861Z,-1.66
2023-02-08T03:59:36.861Z,-1.61
2023-02-08T04:00:35.845Z,-1.59
2023-02-08T04:01:35.875Z,-1.61
2023-02-08T04:02:35.874Z,-1.69
2023-02-08T04:03:35.822Z,-1.69
2023-02-08T04:04:35.807Z,-1.72
2023-02-08T04:05:35.815Z,-1.71
2023-02-08T04:06:35.792Z,-1.68
2023-02-08T04:07:35.753Z,-1.64
2023-02-08T04:08:35.756Z,-1.66
2023-02-08T04:09:37.849Z,-1.65
2023-02-08T04:10:36.739Z,-1.65
2023-02-08T04:11:35.696Z,-1.61
2023-02-08T04:12:35.729Z,-1.74
2023-02-08T04:13:35.715Z,-1.71
2023-02-08T04:14:35.678Z,-1.79
2023-02-08T04:15:35.723Z,-1.79
2023-02-08T04:16:35.654Z,-1.76
2023-02-08T04:17:36.650Z,-1.69
2023-02-08T04:18:35.635Z,-1.76
2023-02-08T04:19:35.664Z,-1.69
2023-02-08T04:20:35.603Z,-1.74
2023-02-08T04:21:35.620Z,-1.64
2023-02-08T04:22:35.613Z,-1.62
2023-02-08T04:23:35.595Z,-1.65
2023-02-08T04:24:35.559Z,-1.72
2023-02-08T04:25:35.578Z,-1.71
2023-02-08T04:26:35.570Z,-1.77
2023-02-08T04:27:36.549Z,-1.80
2023-02-08T04:28:35.525Z,-1.76
2023-02-08T04:29:35.506Z,-1.69
2023-02-08T04:30:35.529Z,-1.69
2023-02-08T04:31:35.677Z,-1.61
2023-02-08T04:32:35.507Z,-1.61
2023-02-08T04:33:35.487Z,-1.72
2023-02-08T04:34:36.484Z,-1.72
2023-02-08T04:35:35.457Z,-1.79
2023-02-08T04:36:35.476Z,-1.79
2023-02-08T04:37:35.451Z,-1.77
2023-02-08T04:38:35.454Z,-1.82
2023-02-08T04:39:36.437Z,-1.72
2023-02-08T04:40:35.405Z,-1.80
2023-02-08T04:41:35.401Z,-1.71
2023-02-08T04:42:35.421Z,-1.71
2023-02-08T04:43:36.389Z,-1.74
2023-02-08T04:44:35.363Z,-1.71
2023-02-08T04:45:35.385Z,-1.72
2023-02-08T04:46:35.383Z,-1.84
2023-02-08T04:47:36.356Z,-1.92
2023-02-08T04:48:35.327Z,-2.01
2023-02-08T04:49:36.352Z,-2.01
2023-02-08T04:50:36.332Z,-2.19
2023-02-08T04:51:35.309Z,-2.32
2023-02-08T04:52:35.285Z,-2.32
2023-02-08T04:53:35.269Z,-2.19
2023-02-08T04:54:35.265Z,-2.08
2023-02-08T04:55:36.269Z,-2.15
2023-02-08T04:56:36.236Z,-2.12
2023-02-08T04:57:35.266Z,-2.07
2023-02-08T04:58:35.219Z,-2.10
2023-02-08T04:59:35.197Z,-2.12
2023-02-08T05:00:35.189Z,-2.15
2023-02-08T05:01:35.221Z,-2.02
2023-02-08T05:02:36.178Z,-2.08
2023-02-08T05:03:35.212Z,-2.23
2023-02-08T05:04:35.137Z,-2.41
2023-02-08T05:05:35.140Z,-2.42
2023-02-08T05:06:35.141Z,-2.62
2023-02-08T05:07:35.111Z,-2.65
2023-02-08T05:08:35.113Z,-2.71
2023-02-08T05:09:35.093Z,-2.71
2023-02-08T05:10:35.088Z,-2.60
2023-02-08T05:11:35.090Z,-2.50
2023-02-08T05:12:36.080Z,-2.62
2023-02-08T05:13:35.044Z,-2.44
2023-02-08T05:14:35.055Z,-2.47
2023-02-08T05:15:35.068Z,-2.38
2023-02-08T05:16:35.027Z,-2.41
2023-02-08T05:17:35.037Z,-2.41
2023-02-08T05:18:34.997Z,-2.40
2023-02-08T05:19:34.992Z,-2.37
2023-02-08T05:20:34.984Z,-2.42
2023-02-08T05:21:34.999Z,-2.41
2023-02-08T05:22:35.972Z,-2.28
2023-02-08T05:23:34.947Z,-2.22
2023-02-08T05:24:34.955Z,-2.15
2023-02-08T05:25:34.919Z,-2.08
2023-02-08T05:26:34.932Z,-2.02
2023-02-08T05:27:35.913Z,-1.98
2023-02-08T05:28:35.913Z,-2.00
2023-02-08T05:29:35.898Z,-2.04
2023-02-08T05:30:34.857Z,-2.07
2023-02-08T05:31:35.000Z,-1.95
2023-02-08T05:32:34.865Z,-2.05
2023-02-08T05:33:34.867Z,-2.07
2023-02-08T05:34:34.823Z,-2.15
2023-02-08T05:35:34.820Z,-2.18
2023-02-08T05:36:34.788Z,-2.19
2023-02-08T05:37:35.804Z,-2.21
2023-02-08T05:38:34.797Z,-2.42
2023-02-08T05:39:35.751Z,-2.59
2023-02-08T05:40:35.761Z,-2.56
2023-02-08T05:41:35.735Z,-2.70
2023-02-08T05:42:34.736Z,-2.78
2023-02-08T05:43:34.727Z,-2.80
2023-02-08T05:44:34.726Z,-2.73
2023-02-08T05:45:34.685Z,-2.74
2023-02-08T05:46:37.098Z,-2.71
2023-02-08T05:47:34.699Z,-2.66
2023-02-08T05:48:34.661Z,-2.59
2023-02-08T05:49:34.674Z,-2.58
2023-02-08T05:50:34.667Z,-2.50
2023-02-08T05:51:35.652Z,-2.53
2023-02-08T05:52:34.626Z,-2.48
2023-02-08T05:53:35.627Z,-2.48
2023-02-08T05:54:34.618Z,-2.65
2023-02-08T05:55:34.597Z,-2.48
2023-02-08T05:56:34.613Z,-2.60
2023-02-08T05:57:35.796Z,-2.55
2023-02-08T05:58:35.560Z,-2.56
2023-02-08T05:59:35.551Z,-2.53
2023-02-08T06:00:34.580Z,-2.55
2023-02-08T06:01:34.544Z,-2.48
2023-02-08T06:02:34.536Z,-2.42
2023-02-08T06:03:34.505Z,-2.44
2023-02-08T06:04:34.504Z,-2.44
2023-02-08T06:05:34.536Z,-2.42
2023-02-08T06:06:35.496Z,-2.48
2023-02-08T06:07:34.531Z,-2.42
2023-02-08T06:08:34.476Z,-2.48
2023-02-08T06:09:34.489Z,-2.47
2023-02-08T06:10:34.438Z,-2.62
2023-02-08T06:11:34.454Z,-2.52
2023-02-08T06:12:34.411Z,-2.45
2023-02-08T06:13:34.407Z,-2.52
2023-02-08T06:14:34.409Z,-2.48
2023-02-08T06:15:34.378Z,-2.44
2023-02-08T06:16:34.397Z,-2.35
2023-02-08T06:17:34.385Z,-2.41
2023-02-08T06:18:34.336Z,-2.40
2023-02-08T06:19:34.350Z,-2.30
2023-02-08T06:20:34.344Z,-2.38
2023-02-08T06:21:34.323Z,-2.41
2023-02-08T06:22:34.301Z,-2.34
2023-02-08T06:23:34.332Z,-2.37
2023-02-08T06:24:34.282Z,-2.41
2023-02-08T06:25:34.284Z,-2.42
2023-02-08T06:26:34.259Z,-2.34
2023-02-08T06:27:34.246Z,-2.38
2023-02-08T06:28:34.249Z,-2.35
2023-02-08T06:29:34.249Z,-2.37
2023-02-08T06:30:34.250Z,-2.41
2023-02-08T06:31:34.252Z,-2.47
2023-02-08T06:32:34.271Z,-2.56
2023-02-08T06:33:34.187Z,-2.53
2023-02-08T06:34:35.204Z,-2.42
2023-02-08T06:35:34.195Z,-2.50
2023-02-08T06:36:34.769Z,-2.55
2023-02-08T06:37:35.197Z,-2.52
2023-02-08T06:38:34.177Z,-2.52
2023-02-08T06:39:35.143Z,-2.48
2023-02-08T06:40:34.124Z,-2.50
2023-02-08T06:41:34.124Z,-2.58
2023-02-08T06:42:34.097Z,-2.56
2023-02-08T06:43:34.142Z,-2.47
2023-02-08T06:44:34.090Z,-2.47
2023-02-08T06:45:34.115Z,-2.45
2023-02-08T06:46:34.040Z,-2.53
2023-02-08T06:47:34.044Z,-2.53
2023-02-08T06:48:34.030Z,-2.60
2023-02-08T06:49:35.048Z,-2.74
2023-02-08T06:50:34.105Z,-2.74
2023-02-08T06:51:34.004Z,-2.76
2023-02-08T06:52:35.001Z,-2.69
2023-02-08T06:53:33.984Z,-2.63
2023-02-08T06:54:34.981Z,-2.56
2023-02-08T06:55:34.988Z,-2.60
2023-02-08T06:56:33.942Z,-2.48
2023-02-08T06:57:33.921Z,-2.50
2023-02-08T06:58:33.950Z,-2.48
2023-02-08T06:59:33.951Z,-2.44
2023-02-08T07:00:33.930Z,-2.45
2023-02-08T07:01:33.922Z,-2.45
2023-02-08T07:02:33.996Z,-2.41
2023-02-08T07:03:34.898Z,-2.45
2023-02-08T07:04:33.884Z,-2.44
2023-02-08T07:05:34.858Z,-2.38
2023-02-08T07:06:33.880Z,-2.37
2023-02-08T07:07:33.869Z,-2.34
2023-02-08T07:08:33.814Z,-2.44
2023-02-08T07:09:33.834Z,-2.42
2023-02-08T07:10:33.813Z,-2.38
2023-02-08T07:11:33.821Z,-2.44
2023-02-08T07:12:33.790Z,-2.48
2023-02-08T07:13:34.791Z,-2.50
2023-02-08T07:14:33.743Z,-2.62
2023-02-08T07:15:33.736Z,-2.58
2023-02-08T07:16:33.789Z,-2.45
2023-02-08T07:17:33.760Z,-2.58
2023-02-08T07:18:34.726Z,-2.45
2023-02-08T07:19:34.695Z,-2.53
2023-02-08T07:20:33.731Z,-2.59
2023-02-08T07:21:33.699Z,-2.71
2023-02-08T07:22:33.701Z,-2.78
2023-02-08T07:23:33.679Z,-2.74
2023-02-08T07:24:33.676Z,-2.70
2023-02-08T07:25:33.662Z,-2.73
2023-02-08T07:26:33.697Z,-2.66
2023-02-08T07:27:33.642Z,-2.58
2023-02-08T07:28:33.619Z,-2.52
2023-02-08T07:29:34.601Z,-2.58
2023-02-08T07:30:34.634Z,-2.44
2023-02-08T07:31:34.726Z,-2.42
2023-02-08T07:32:34.840Z,-2.32
2023-02-08T07:33:33.554Z,-2.40
2023-02-08T07:34:33.610Z,-2.22
2023-02-08T07:35:33.532Z,-2.21
2023-02-08T07:36:33.529Z,-2.22
2023-02-08T07:37:33.520Z,-2.18
2023-02-08T07:38:33.499Z,-2.07
2023-02-08T07:39:33.508Z,-2.04
2023-02-08T07:40:33.492Z,-2.04
2023-02-08T07:41:33.488Z,-2.08
2023-02-08T07:42:33.467Z,-2.02
2023-02-08T07:43:34.456Z,-1.92
2023-02-08T07:44:34.472Z,-1.97
2023-02-08T07:45:33.422Z,-1.94
2023-02-08T07:46:33.443Z,-1.94
2023-02-08T07:47:33.403Z,-1.98
2023-02-08T07:48:33.429Z,-1.98
2023-02-08T07:49:33.418Z,-1.97
2023-02-08T07:50:33.412Z,-1.90
2023-02-08T07:51:33.397Z,-1.87
2023-02-08T07:52:34.359Z,-1.87
2023-02-08T07:53:34.367Z,-1.84
2023-02-08T07:54:34.328Z,-1.79
2023-02-08T07:55:33.339Z,-1.76
2023-02-08T07:56:33.299Z,-1.76
2023-02-08T07:57:34.319Z,-1.72
2023-02-08T07:58:34.299Z,-1.64
2023-02-08T07:59:34.286Z,-1.82
2023-02-08T08:00:34.273Z,-1.82
2023-02-08T08:01:33.385Z,-1.68
2023-02-08T08:02:33.294Z,-1.66
2023-02-08T08:03:33.250Z,-1.54
2023-02-08T08:04:34.228Z,-1.51
2023-02-08T08:05:33.224Z,-1.50
2023-02-08T08:06:34.236Z,-1.47
2023-02-08T08:07:33.214Z,-1.38
2023-02-08T08:08:33.193Z,-1.32
2023-02-08T08:09:33.241Z,-1.41
2023-02-08T08:10:33.190Z,-1.20
2023-02-08T08:11:34.178Z,-1.15
2023-02-08T08:12:34.139Z,-1.26
2023-02-08T08:13:33.122Z,-1.17
2023-02-08T08:14:33.158Z,-1.07
2023-02-08T08:15:34.136Z,-1.19
2023-02-08T08:16:33.163Z,-1.09
2023-02-08T08:17:33.096Z,-1.07
2023-02-08T08:18:33.090Z,-0.94
2023-02-08T08:19:33.128Z,-1.11
2023-02-08T08:20:33.069Z,-1.17
2023-02-08T08:21:33.077Z,-1.07
2023-02-08T08:22:33.053Z,-1.11
2023-02-08T08:23:33.053Z,-1.20
2023-02-08T08:24:33.035Z,-0.97
2023-02-08T08:25:34.045Z,-1.07
2023-02-08T08:26:32.981Z,-1.08
2023-02-08T08:27:33.042Z,-1.09
2023-02-08T08:28:33.060Z,-1.01
2023-02-08T08:29:32.968Z,-0.94
2023-02-08T08:30:32.984Z,-0.83
2023-02-08T08:31:33.009Z,-1.04
2023-02-08T08:32:32.945Z,-1.01
2023-02-08T08:33:33.912Z,-1.01
2023-02-08T08:34:32.920Z,-0.93
2023-02-08T08:35:32.894Z,-0.97
2023-02-08T08:36:33.938Z,-0.80
2023-02-08T08:37:32.863Z,-0.71
2023-02-08T08:38:32.871Z,-0.74
2023-02-08T08:39:32.845Z,-0.77
2023-02-08T08:40:33.847Z,-0.83
2023-02-08T08:41:32.833Z,-0.80
2023-02-08T08:42:32.843Z,-0.74
2023-02-08T08:43:32.896Z,-0.67
2023-02-08T08:44:33.798Z,-0.64
2023-02-08T08:45:32.788Z,-0.65
2023-02-08T08:46:33.790Z,-0.59
2023-02-08T08:47:32.800Z,-0.62
2023-02-08T08:48:32.882Z,-0.57
2023-02-08T08:49:33.764Z,-0.54
2023-02-08T08:50:32.740Z,-0.53
2023-02-08T08:51:33.680Z,-0.54
2023-02-08T08:52:32.704Z,-0.39
2023-02-08T08:53:33.707Z,-0.49
2023-02-08T08:54:32.719Z,-0.53
2023-02-08T08:55:33.682Z,-0.44
2023-02-08T08:56:32.679Z,-0.54
2023-02-08T08:57:32.657Z,-0.36
2023-02-08T08:58:32.672Z,-0.50
2023-02-08T08:59:32.670Z,-0.54
2023-02-08T09:00:32.652Z,-0.65
2023-02-08T09:01:34.454Z,-0.67
2023-02-08T09:02:32.593Z,-0.59
2023-02-08T09:03:32.676Z,-0.56
2023-02-08T09:04:32.592Z,-0.41
2023-02-08T09:05:32.594Z,-0.44
2023-02-08T09:06:32.556Z,-0.35
2023-02-08T09:07:33.608Z,-0.28
2023-02-08T09:08:32.533Z,-0.25
2023-02-08T09:09:32.557Z,-0.25
2023-02-08T09:10:32.534Z,-0.28
2023-02-08T09:11:32.536Z,-0.15
2023-02-08T09:12:32.515Z,-0.18
2023-02-08T09:13:32.542Z,-0.20
2023-02-08T09:14:32.524Z,-0.21
2023-02-08T09:15:32.495Z,-0.15
2023-02-08T09:16:32.460Z,-0.06
2023-02-08T09:17:32.447Z,0.04
2023-02-08T09:18:32.450Z,0.05
2023-02-08T09:19:32.461Z,0.11
2023-02-08T09:20:32.478Z,0.07
2023-02-08T09:21:32.384Z,0.15
2023-02-08T09:22:32.392Z,0.25
2023-02-08T09:23:32.385Z,0.39
2023-02-08T09:24:32.352Z,0.32
2023-02-08T09:25:32.352Z,0.41
2023-02-08T09:26:33.357Z,0.46
2023-02-08T09:27:32.315Z,0.39
2023-02-08T09:28:32.359Z,0.34
2023-02-08T09:29:33.314Z,0.46
2023-02-08T09:30:32.289Z,0.44
2023-02-08T09:31:32.361Z,0.46
2023-02-08T09:32:32.282Z,0.52
2023-02-08T09:33:32.268Z,0.59
2023-02-08T09:34:32.273Z,0.55
2023-02-08T09:35:32.271Z,0.56
2023-02-08T09:36:32.272Z,0.65
2023-02-08T09:37:32.229Z,0.70
2023-02-08T09:38:34.551Z,0.77
2023-02-08T09:39:33.218Z,0.65
2023-02-08T09:40:32.190Z,0.65
2023-02-08T09:41:32.191Z,0.78
2023-02-08T09:42:32.215Z,0.81
2023-02-08T09:43:33.182Z,0.77
2023-02-08T09:44:33.160Z,0.80
2023-02-08T09:45:32.190Z,0.92
2023-02-08T09:46:32.153Z,0.92
2023-02-08T09:47:32.163Z,0.99
2023-02-08T09:48:33.129Z,1.05
2023-02-08T09:49:32.109Z,1.17
2023-02-08T09:50:32.165Z,1.20
2023-02-08T09:51:32.109Z,1.30
2023-02-08T09:52:32.081Z,1.28
2023-02-08T09:53:32.085Z,1.30
2023-02-08T09:54:32.056Z,1.31
2023-02-08T09:55:32.045Z,1.35
2023-02-08T09:56:32.061Z,1.40
2023-02-08T09:57:32.011Z,1.42
2023-02-08T09:58:32.049Z,1.42
2023-02-08T09:59:32.013Z,1.40
2023-02-08T10:00:32.052Z,1.48
2023-02-08T10:01:32.027Z,1.50
2023-02-08T10:02:31.999Z,1.49
2023-02-08T10:03:31.965Z,1.42
2023-02-08T10:04:31.980Z,1.50
2023-02-08T10:05:31.947Z,1.45
2023-02-08T10:06:31.928Z,1.48
2023-02-08T10:07:32.969Z,1.53
2023-02-08T10:08:35.605Z,1.62
2023-02-08T10:09:32.892Z,1.63
2023-02-08T10:10:31.888Z,1.66
2023-02-08T10:11:31.925Z,1.73
2023-02-08T10:12:32.854Z,1.73
2023-02-08T10:13:41.681Z,1.92
2023-02-08T10:14:32.837Z,1.84
2023-02-08T10:15:31.838Z,1.71
2023-02-08T10:16:31.856Z,1.74
2023-02-08T10:17:31.822Z,1.56
2023-02-08T10:18:31.882Z,1.63
2023-02-08T10:19:31.768Z,1.60
2023-02-08T10:20:32.770Z,1.77
2023-02-08T10:21:31.747Z,1.74
2023-02-08T10:22:31.788Z,1.88
2023-02-08T10:23:31.780Z,1.81
2023-02-08T10:24:31.728Z,1.81
2023-02-08T10:25:31.724Z,1.88
2023-02-08T10:26:31.731Z,1.89
2023-02-08T10:27:31.698Z,1.89
2023-02-08T10:28:31.829Z,1.94
2023-02-08T10:29:31.722Z,2.04
2023-02-08T10:30:31.748Z,2.08
2023-02-08T10:31:31.745Z,2.10
2023-02-08T10:32:31.647Z,2.25
2023-02-08T10:33:31.640Z,2.13
2023-02-08T10:34:32.615Z,2.32
2023-02-08T10:35:31.607Z,2.24
2023-02-08T10:36:31.637Z,2.17
2023-02-08T10:37:31.594Z,2.26
2023-02-08T10:38:45.403Z,2.15
2023-02-08T10:39:34.775Z,2.31
2023-02-08T10:40:31.586Z,2.28
2023-02-08T10:41:31.582Z,2.33
2023-02-08T10:42:32.528Z,2.24
2023-02-08T10:43:31.527Z,2.33
2023-02-08T10:44:31.511Z,2.43
2023-02-08T10:45:31.512Z,2.44
2023-02-08T10:46:31.518Z,2.42
2023-02-08T10:47:31.504Z,2.53
2023-02-08T10:48:31.473Z,2.47
2023-02-08T10:49:32.493Z,2.56
2023-02-08T10:50:31.436Z,2.56
2023-02-08T10:51:31.447Z,2.71
2023-02-08T10:52:32.450Z,2.75
2023-02-08T10:53:31.402Z,2.72
2023-02-08T10:54:31.446Z,2.71
2023-02-08T10:55:31.416Z,2.69
2023-02-08T10:56:31.414Z,2.80
2023-02-08T10:57:32.357Z,2.82
2023-02-08T10:58:31.365Z,2.89
2023-02-08T10:59:31.383Z,2.80
2023-02-08T11:00:31.344Z,2.74
2023-02-08T11:01:31.490Z,2.79
2023-02-08T11:02:31.335Z,2.93
2023-02-08T11:03:32.336Z,2.86
2023-02-08T11:04:31.341Z,2.97
2023-02-08T11:05:31.324Z,3.00
2023-02-08T11:06:31.273Z,3.16
2023-02-08T11:07:31.266Z,3.08
2023-02-08T11:08:31.285Z,3.08
2023-02-08T11:09:31.310Z,3.21
2023-02-08T11:10:31.246Z,3.29
2023-02-08T11:11:31.250Z,3.34
2023-02-08T11:12:31.192Z,3.23
2023-02-08T11:13:31.226Z,3.10
2023-02-08T11:14:45.474Z,2.86
2023-02-08T11:15:32.207Z,2.95
2023-02-08T11:16:31.230Z,2.85
2023-02-08T11:17:32.148Z,2.77
2023-02-08T11:18:31.130Z,2.80
2023-02-08T11:19:31.133Z,2.82
2023-02-08T11:20:31.124Z,2.85
2023-02-08T11:21:31.128Z,3.01
2023-02-08T11:22:31.136Z,3.05
2023-02-08T11:23:31.128Z,3.05
2023-02-08T11:24:31.093Z,3.10
2023-02-08T11:25:31.072Z,3.10
2023-02-08T11:26:31.097Z,2.85
2023-02-08T11:27:32.060Z,2.98
2023-02-08T11:28:31.110Z,2.97
2023-02-08T11:29:31.018Z,3.03
2023-02-08T11:30:31.033Z,3.11
2023-02-08T11:31:31.048Z,3.14
2023-02-08T11:32:31.027Z,3.21
2023-02-08T11:33:30.991Z,3.25
2023-02-08T11:34:31.021Z,3.36
2023-02-08T11:35:31.997Z,3.47
2023-02-08T11:36:32.640Z,3.50
2023-02-08T11:37:30.936Z,3.68
2023-02-08T11:38:30.972Z,3.65
2023-02-08T11:39:30.929Z,3.70
2023-02-08T11:40:31.908Z,3.76
2023-02-08T11:41:30.916Z,3.78
2023-02-08T11:42:30.917Z,3.80
2023-02-08T11:43:30.901Z,3.66
2023-02-08T11:44:30.880Z,3.78
2023-02-08T11:45:30.878Z,3.78
2023-02-08T11:46:30.843Z,3.78
2023-02-08T11:47:31.857Z,3.81
2023-02-08T11:48:31.856Z,3.86
2023-02-08T11:49:30.844Z,3.74
2023-02-08T11:50:30.818Z,3.77
2023-02-08T11:51:30.812Z,3.87
2023-02-08T11:52:32.449Z,3.86
2023-02-08T11:53:30.758Z,3.88
2023-02-08T11:54:30.819Z,3.98
2023-02-08T11:55:31.742Z,4.02
2023-02-08T11:56:30.745Z,4.01
2023-02-08T11:57:30.745Z,4.12
2023-02-08T11:58:31.719Z,3.92
2023-02-08T11:59:30.756Z,4.01
2023-02-08T12:00:31.692Z,3.98
2023-02-08T12:01:30.673Z,4.12
2023-02-08T12:02:31.719Z,4.01
2023-02-08T12:03:30.757Z,4.08
2023-02-08T12:04:30.700Z,4.02
2023-02-08T12:05:30.656Z,4.06
2023-02-08T12:06:30.634Z,4.05
2023-02-08T12:07:30.642Z,4.01
2023-02-08T12:08:30.621Z,4.05
2023-02-08T12:09:30.622Z,4.02
2023-02-08T12:10:30.590Z,4.19
2023-02-08T12:11:31.567Z,4.04
2023-02-08T12:12:30.606Z,4.01
2023-02-08T12:13:31.589Z,4.12
2023-02-08T12:14:31.571Z,4.01
2023-02-08T12:15:30.619Z,4.14
2023-02-08T12:16:32.588Z,4.14
2023-02-08T12:17:31.562Z,4.10
2023-02-08T12:18:31.086Z,4.13
2023-02-08T12:19:30.518Z,4.19
2023-02-08T12:20:31.542Z,4.16
2023-02-08T12:21:31.483Z,4.34
2023-02-08T12:22:30.462Z,4.37
2023-02-08T12:23:30.435Z,4.37
2023-02-08T12:24:31.431Z,4.38
2023-02-08T12:25:30.424Z,4.45
2023-02-08T12:26:30.441Z,4.44
2023-02-08T12:27:31.401Z,4.41
2023-02-08T12:28:30.388Z,4.34
2023-02-08T12:29:41.966Z,4.41
2023-02-08T12:30:31.420Z,4.44
2023-02-08T12:31:30.472Z,4.37
2023-02-08T12:32:30.403Z,4.38
2023-02-08T12:33:30.353Z,4.40
2023-02-08T12:34:30.313Z,4.26
2023-02-08T12:35:41.715Z,4.23
2023-02-08T12:36:31.340Z,4.08
2023-02-08T12:37:31.343Z,4.16
2023-02-08T12:38:30.285Z,4.19
2023-02-08T12:39:30.309Z,4.10
2023-02-08T12:40:31.255Z,4.16
2023-02-08T12:41:30.260Z,4.10
2023-02-08T12:42:30.255Z,4.02
2023-02-08T12:43:30.334Z,4.10
2023-02-08T12:44:31.242Z,4.17
2023-02-08T12:45:30.232Z,4.23
2023-02-08T12:46:30.312Z,4.40
2023-02-08T12:47:30.231Z,4.45
2023-02-08T12:48:30.226Z,4.52
2023-02-08T12:49:30.206Z,4.42
2023-02-08T12:50:30.167Z,4.38
2023-02-08T12:51:30.167Z,4.52
2023-02-08T12:52:30.170Z,4.60
2023-02-08T12:53:30.129Z,4.66
2023-02-08T12:54:30.157Z,4.58
2023-02-08T12:55:30.133Z,4.55
2023-02-08T12:56:30.098Z,4.42
2023-02-08T12:57:31.787Z,4.04
2023-02-08T12:58:30.090Z,3.84
2023-02-08T12:59:30.123Z,3.91